Flight Track Log - Related Links

Times and Time Zones

All times are in EDT time to prevent confusion due to time zone crossing. See the DAL6234 flight status page for this flight to view local times or setup timezone preferences in your user account.


Time Position Orientation Groundspeed Altitude Reporting Facility
EDT Latitude Longitude Course Direction KTS MPH feet Rate Location/Type
Fri 04:34:22 PM 40.8306 -73.7411 313° West 268 308 4,800  Level New York Center
Fri 04:35:19 PM 40.9000 -73.7667 344° North 283 326 7,400 2,615 Climbing New York TRACON
Fri 04:36:19 PM 40.9500 -73.8333 315° West 286 329 9,900 2,131 Climbing New York TRACON
Fri 04:38:00 PM 41.0858 -74.3582 313° West  Level FlightAware Approximate
Fri 04:38:22 PM 41.0286 -74.0525 295° West 321 369 13,900  Level New York Center
Fri 04:39:00 PM 41.1422 -74.4388 313° West  Level FlightAware Approximate
Fri 04:39:24 PM 41.0711 -74.1647 297° West 338 389 16,000  Level New York Center
Fri 04:40:24 PM 41.1097 -74.2683 296° West 343 395 16,000 559 Level New York Center
Fri 04:41:22 PM 41.1600 -74.3978 297° West 350 403 17,100 1,475 Climbing New York Center
Fri 04:42:22 PM 41.2042 -74.5186 296° West 358 412 18,900 1,736 Climbing New York Center
Fri 04:43:23 PM 41.2547 -74.6264 302° West 370 426 20,600 1,525 Climbing New York Center
Fri 04:44:24 PM 41.3239 -74.7408 309° West 383 441 22,000 694 Climbing New York Center
Fri 04:45:24 PM 41.3972 -74.8531 311° West 399 459 22,000  Level New York Center
Fri 04:46:25 PM 41.4800 -74.9828 310° West 413 475 22,000  Level New York Center
Fri 04:47:23 PM 41.5528 -75.1008 310° West 413 475 22,000  Level New York Center
Fri 04:48:23 PM 41.6236 -75.2192 309° West 413 475 22,000  Level New York Center
Fri 04:49:24 PM 41.6958 -75.3408 309° West 413 475 22,000  Level New York Center
Fri 04:51:22 PM 41.8344 -75.5758 308° West 413 475 22,000  Level New York Center
Fri 04:52:23 PM 41.9006 -75.6892 308° West 408 470 22,000 -344 Level New York Center
Fri 04:53:24 PM 41.9686 -75.8058 308° West 403 464 21,300 -1,140 Descending New York Center
Fri 04:54:24 PM 42.0306 -75.9139 308° West 385 443 19,700 -1,800 Descending New York Center
Fri 04:55:24 PM 42.0906 -76.0192 308° West 370 426 17,700 -1,881 Descending New York Center
Fri 04:56:22 PM 42.1569 -76.1167 313° West 358 412 16,000 -3,407 Descending New York Center
Fri 04:57:22 PM 42.2625 -76.1281 355° North 342 394 11,000 -1,806 Descending New York Center
Fri 04:57:55 PM 42.3239 -76.1219 North 398 458 13,200 326 Climbing Boston Center
Fri 04:58:54 PM 42.4286 -76.1111 North 382 440 11,500 -1,109 Descending Boston Center
Fri 04:59:54 PM 42.5306 -76.1200 356° North 363 418 11,000 -397 Descending Boston Center
Fri 05:00:55 PM 42.6322 -76.1344 354° North 368 423 10,700 -927 Descending Boston Center
Fri 05:01:57 PM 42.7217 -76.1400 357° North 326 375 9,100 -1,610 Descending Boston Center
Fri 05:02:58 PM 42.8111 -76.1453 358° North 316 364 7,400 -1,748 Descending Boston Center
Fri 05:04:04 PM 42.9128 -76.1600 354° North 319 367 5,400 -1,534 Descending Boston Center
Fri 05:05:11 PM 43.0103 -76.1744 354° North 319 367 4,000 -1,039 Descending Boston Center
Fri 05:06:11 PM 43.0800 -76.2128 338° Northwest 269 310 3,200 -522 Descending Boston Center
Fri 05:07:06 PM 43.1369 -76.2503 334° Northwest 231 266 3,000 -595 Descending Boston Center
Fri 05:08:12 PM 43.1783 -76.1961 44° Northeast 184 212 2,000 -898 Descending Boston Center
Fri 05:09:13 PM 43.1506 -76.1600 137° Southeast 125 144 1,100 -885 Descending Boston Center

Login

Don't have an account? Register now (free) for customized features, flight alerts, and more!